Time;durP1;ratioP1;P1;durP2;ratioP2;P2;SDS_P1;SDS_P2;PMS_P1;PMS_P2;Temp;Humidity;BMP_temperature;BMP_pressure;BME280_temperature;BME280_humidity;BME280_pressure;Samples;Min_cycle;Max_cycle;Signal;HPM_P1;HPM_P2
2022/04/30 00:00:29;;;;;;;;;;;15.00;99.90;;;;;;5053205;28;20039;-64
2022/04/30 00:02:57;;;;;;;15.77;10.10;;;14.90;99.90;;;;;;5053946;28;20293;-65
2022/04/30 00:05:23;;;;;;;19.02;10.23;;;14.80;99.90;;;;;;5054196;28;20017;-65
2022/04/30 00:07:48;;;;;;;14.02;8.80;;;14.80;99.90;;;;;;5065960;22;20034;-66
2022/04/30 00:10:14;;;;;;;16.87;9.97;;;14.80;99.90;;;;;;5034745;28;20091;-66
2022/04/30 00:12:40;;;;;;;16.17;9.37;;;14.70;99.90;;;;;;5034274;28;20021;-66
2022/04/30 00:15:06;;;;;;;14.95;10.80;;;14.60;99.90;;;;;;5034340;28;20268;-66
2022/04/30 00:17:31;;;;;;;17.85;10.25;;;14.50;99.90;;;;;;5033934;28;20045;-66
2022/04/30 00:19:57;;;;;;;15.87;11.17;;;14.50;99.90;;;;;;5034572;28;20026;-65
2022/04/30 00:22:23;;;;;;;17.52;10.73;;;14.40;99.90;;;;;;5033991;28;20028;-66
2022/04/30 00:24:49;;;;;;;19.60;12.03;;;14.30;99.90;;;;;;5034408;28;20360;-66
2022/04/30 00:27:15;;;;;;;19.52;11.75;;;14.20;99.90;;;;;;5033777;28;20033;-66
2022/04/30 00:29:41;;;;;;;20.08;11.80;;;14.10;99.90;;;;;;5033727;28;20025;-66
2022/04/30 00:32:07;;;;;;;20.42;11.63;;;14.10;99.90;;;;;;5016150;28;20485;-66
2022/04/30 00:34:33;;;;;;;19.25;11.77;;;14.10;99.90;;;;;;5034128;28;20033;-66
2022/04/30 00:37:02;;;;;;;21.63;12.37;;;14.10;99.90;;;;;;5033831;28;20052;-65
2022/04/30 00:39:32;;;;;;;21.70;11.75;;;14.10;99.90;;;;;;5033511;28;20473;-65
2022/04/30 00:41:58;;;;;;;18.85;11.73;;;14.00;99.90;;;;;;5033646;28;20083;-65
2022/04/30 00:44:24;;;;;;;22.42;13.05;;;13.90;99.90;;;;;;5015789;28;20033;-65
2022/04/30 00:46:50;;;;;;;17.80;11.80;;;13.80;99.90;;;;;;5015857;28;20029;-65
2022/04/30 00:49:15;;;;;;;22.30;12.40;;;13.80;99.90;;;;;;5033885;28;20029;-66
2022/04/30 00:51:43;;;;;;;16.70;11.02;;;13.90;99.90;;;;;;5015983;28;20060;-65
2022/04/30 00:54:11;;;;;;;22.45;12.85;;;13.80;99.90;;;;;;5015611;28;20026;-65
2022/04/30 00:56:44;;;;;;;20.65;12.05;;;13.80;99.90;;;;;;5033208;28;20083;-66
2022/04/30 00:59:11;;;;;;;18.77;11.75;;;13.70;99.90;;;;;;5033588;28;20470;-66
2022/04/30 01:01:37;;;;;;;19.15;12.02;;;13.70;99.90;;;;;;5033204;28;20033;-66
2022/04/30 01:04:07;;;;;;;21.25;12.30;;;13.60;99.90;;;;;;5033156;28;20025;-66
2022/04/30 01:06:52;;;;;;;19.40;12.60;;;13.60;99.90;;;;;;5015221;28;20029;-66
2022/04/30 01:09:21;;;;;;;22.88;12.27;;;13.60;99.90;;;;;;5015496;28;20025;-67
2022/04/30 01:11:59;;;;;;;23.13;12.93;;;13.50;99.90;;;;;;5015418;28;20025;-66
2022/04/30 01:14:29;;;;;;;20.88;12.60;;;13.50;99.90;;;;;;5015288;28;20394;-67
2022/04/30 01:16:57;;;;;;;23.95;12.82;;;13.60;99.90;;;;;;5033088;28;20497;-66
2022/04/30 01:19:24;;;;;;;27.50;12.95;;;13.80;99.90;;;;;;5033448;28;20402;-66
2022/04/30 01:21:58;;;;;;;28.63;14.40;;;13.70;99.90;;;;;;5033510;28;20053;-66
2022/04/30 01:24:25;;;;;;;24.55;13.60;;;13.50;99.90;;;;;;5034482;28;20022;-66
2022/04/30 01:26:52;;;;;;;22.70;13.80;;;13.50;99.90;;;;;;5015590;28;20044;-66
2022/04/30 01:29:19;;;;;;;22.50;13.82;;;13.60;99.90;;;;;;5033649;28;20029;-66
2022/04/30 01:37:36;;;;;;;25.00;14.70;;;13.50;99.90;;;;;;5033476;28;20032;-66
2022/04/30 01:40:09;;;;;;;23.15;14.80;;;13.50;99.90;;;;;;5033200;28;20025;-66
2022/04/30 01:42:38;;;;;;;25.13;15.20;;;13.50;99.90;;;;;;5032884;28;20107;-67
2022/04/30 01:45:05;;;;;;;23.63;14.93;;;13.50;99.90;;;;;;5032721;28;20033;-67
2022/04/30 01:47:35;;;;;;;24.98;14.85;;;13.50;99.90;;;;;;5033093;28;20042;-66
2022/04/30 01:50:01;;;;;;;29.48;16.15;;;13.60;99.90;;;;;;5033111;28;20033;-66
2022/04/30 01:52:26;;;;;;;29.23;16.38;;;13.60;99.90;;;;;;5032898;28;20021;-66
2022/04/30 01:54:52;;;;;;;28.30;16.33;;;13.50;99.90;;;;;;5033213;28;20048;-66
2022/04/30 01:57:23;;;;;;;34.27;17.47;;;13.40;99.90;;;;;;5032806;28;20033;-67
2022/04/30 01:59:55;;;;;;;30.17;16.50;;;13.30;99.90;;;;;;5033152;28;20026;-66
2022/04/30 02:02:23;;;;;;;31.83;16.70;;;13.20;99.90;;;;;;5033026;28;20438;-67
2022/04/30 02:04:51;;;;;;;31.98;17.75;;;13.10;99.90;;;;;;5014908;28;20049;-67
2022/04/30 02:07:18;;;;;;;33.83;17.20;;;13.00;99.90;;;;;;5032442;28;20044;-67
2022/04/30 02:09:44;;;;;;;30.52;16.40;;;13.10;99.90;;;;;;5032991;28;20022;-67
2022/04/30 02:12:10;;;;;;;31.67;16.58;;;13.30;99.90;;;;;;5032942;28;20367;-66
2022/04/30 02:14:39;;;;;;;32.50;17.33;;;13.40;99.90;;;;;;5015068;28;20069;-64
2022/04/30 02:17:06;;;;;;;28.08;17.38;;;13.10;99.90;;;;;;5032594;28;20124;-66
2022/04/30 02:20:18;;;;;;;32.70;17.88;;;12.90;99.90;;;;;;5032849;28;20026;-66
2022/04/30 02:22:21;;;;;;;30.05;18.15;;;12.90;99.90;;;;;;5032255;28;20029;-67
2022/04/30 02:24:48;;;;;;;30.02;17.80;;;12.70;99.90;;;;;;5032488;28;20017;-66
2022/04/30 02:27:15;;;;;;;32.70;16.88;;;12.60;99.90;;;;;;5032194;28;20106;-66
2022/04/30 02:29:40;;;;;;;30.92;17.98;;;12.60;99.90;;;;;;5014386;28;20083;-66
2022/04/30 02:32:06;;;;;;;36.72;18.38;;;12.80;99.90;;;;;;5032142;28;20034;-66
2022/04/30 02:34:34;;;;;;;36.88;17.73;;;12.70;99.90;;;;;;5032587;28;20028;-67
2022/04/30 02:37:01;;;;;;;31.75;18.33;;;12.70;99.90;;;;;;5032308;28;20394;-66
2022/04/30 02:39:26;;;;;;;33.30;18.10;;;12.80;99.90;;;;;;5034049;28;20025;-67
2022/04/30 02:41:52;;;;;;;35.77;18.53;;;12.90;99.90;;;;;;5017940;28;20500;-66
2022/04/30 02:44:18;;;;;;;35.28;19.35;;;12.90;99.90;;;;;;5018004;28;20079;-66
2022/04/30 02:46:44;;;;;;;27.20;17.35;;;12.90;99.90;;;;;;5036257;28;20025;-67
2022/04/30 02:49:09;;;;;;;34.30;18.93;;;12.80;99.90;;;;;;5017737;28;20156;-66
2022/04/30 02:51:35;;;;;;;34.90;17.40;;;12.70;99.90;;;;;;5018578;28;20120;-66
2022/04/30 02:54:00;;;;;;;30.40;18.13;;;12.60;99.90;;;;;;5037120;28;20029;-66
2022/04/30 02:56:27;;;;;;;30.17;17.10;;;12.60;99.90;;;;;;5018636;28;20026;-66
2022/04/30 03:01:36;;;;;;;27.55;18.08;;;12.80;99.90;;;;;;5036541;28;20335;-66
2022/04/30 03:04:05;;;;;;;33.77;18.50;;;12.90;99.90;;;;;;5036126;28;20033;-66
2022/04/30 03:06:37;;;;;;;28.17;17.38;;;12.80;99.90;;;;;;5017914;28;20439;-66
2022/04/30 03:09:03;;;;;;;31.27;18.70;;;12.90;99.90;;;;;;5036098;28;20038;-66
2022/04/30 03:11:29;;;;;;;;;;;12.80;99.90;;;;;;5018576;28;20022;-66
2022/04/30 03:13:54;;;;;;;29.67;18.05;;;12.80;99.90;;;;;;5017992;28;19916;-66
2022/04/30 03:21:49;;;;;;;31.48;18.33;;;12.60;99.90;;;;;;5036082;28;20033;-66
2022/04/30 03:24:17;;;;;;;32.75;19.38;;;12.70;99.90;;;;;;5018422;28;20037;-65
2022/04/30 03:26:44;;;;;;;32.65;18.92;;;12.70;99.90;;;;;;5036300;28;20028;-66
2022/04/30 03:29:10;;;;;;;33.53;19.98;;;12.60;99.90;;;;;;5018739;28;20081;-66
2022/04/30 03:31:39;;;;;;;27.45;17.63;;;12.60;99.90;;;;;;5018175;28;20430;-65
2022/04/30 03:34:08;;;;;;;30.15;18.25;;;12.70;99.90;;;;;;5018033;28;20435;-66
2022/04/30 03:36:34;;;;;;;32.35;19.42;;;12.70;99.90;;;;;;5017337;28;20038;-66
2022/04/30 03:39:00;;;;;;;32.58;19.80;;;12.60;99.90;;;;;;5017268;28;20032;-66
2022/04/30 03:41:25;;;;;;;31.92;19.08;;;12.60;99.90;;;;;;5034788;28;20025;-66
2022/04/30 03:43:51;;;;;;;30.17;18.53;;;12.70;99.90;;;;;;5034616;28;20437;-67
2022/04/30 03:46:17;;;;;;;32.27;19.27;;;12.50;99.90;;;;;;5034821;28;20021;-66
2022/04/30 03:48:43;;;;;;;29.08;18.60;;;12.50;99.90;;;;;;5016925;28;20256;-66
2022/04/30 03:51:09;;;;;;;33.15;19.58;;;12.50;99.90;;;;;;5034593;28;20026;-67
2022/04/30 03:53:35;;;;;;;34.20;19.35;;;12.50;99.90;;;;;;5017329;28;20037;-67
2022/04/30 03:56:00;;;;;;;34.40;18.97;;;12.50;99.90;;;;;;5017296;28;20041;-67
2022/04/30 03:58:27;;;;;;;34.75;18.80;;;12.40;99.90;;;;;;5034170;28;20505;-65
2022/04/30 04:00:53;;;;;;;32.75;19.67;;;12.40;99.90;;;;;;5035005;28;20041;-66
2022/04/30 04:03:20;;;;;;;32.13;20.42;;;12.30;99.90;;;;;;5034397;28;20021;-66
2022/04/30 04:05:49;;;;;;;27.58;18.92;;;12.30;99.90;;;;;;5034235;28;20103;-66
2022/04/30 04:08:15;;;;;;;34.58;18.60;;;12.40;99.90;;;;;;5034303;28;20120;-66
2022/04/30 04:10:41;;;;;;;31.90;19.98;;;12.60;99.90;;;;;;5034441;28;20030;-66
2022/04/30 04:18:35;;;;;;;33.72;20.83;;;12.20;99.90;;;;;;5034275;28;20032;-66
2022/04/30 04:21:02;;;;;;;40.33;21.27;;;12.10;99.90;;;;;;5034205;28;20458;-67
2022/04/30 04:23:28;;;;;;;37.47;20.23;;;12.10;99.90;;;;;;5017170;28;20049;-67
2022/04/30 04:26:00;;;;;;;39.10;20.88;;;12.10;99.90;;;;;;5035658;28;20107;-66
2022/04/30 04:28:27;;;;;;;38.25;22.88;;;12.20;99.90;;;;;;5017870;28;20018;-67
2022/04/30 04:30:53;;;;;;;38.50;23.17;;;12.10;99.90;;;;;;5017444;28;20025;-66
2022/04/30 04:33:19;;;;;;;41.88;24.30;;;12.00;99.90;;;;;;5017550;28;20033;-67
2022/04/30 04:35:44;;;;;;;41.33;22.73;;;12.00;99.90;;;;;;5017511;28;20124;-67
2022/04/30 04:38:10;;;;;;;38.08;23.23;;;11.90;99.90;;;;;;5017889;28;20041;-66
2022/04/30 04:40:36;;;;;;;36.83;23.03;;;11.80;99.90;;;;;;5017291;28;20072;-66
2022/04/30 04:43:01;;;;;;;36.33;22.80;;;11.90;99.90;;;;;;5016761;28;20021;-66
2022/04/30 04:45:27;;;;;;;36.33;21.27;;;11.90;99.90;;;;;;5034567;28;20048;-66
2022/04/30 04:47:53;;;;;;;41.53;22.77;;;11.90;99.90;;;;;;5018065;28;20311;-66
2022/04/30 04:50:21;;;;;;;38.55;23.88;;;11.90;99.90;;;;;;5036691;28;20116;-65
2022/04/30 04:52:47;;;;;;;39.15;22.02;;;11.90;99.90;;;;;;5037010;28;20021;-66
2022/04/30 04:55:13;;;;;;;36.77;22.87;;;12.10;99.90;;;;;;5035378;28;20028;-66
2022/04/30 04:57:39;;;;;;;36.47;23.53;;;12.20;99.90;;;;;;5034578;28;20632;-66
2022/04/30 05:00:06;;;;;;;42.35;24.02;;;12.10;99.90;;;;;;5035198;28;20036;-66
2022/04/30 05:02:31;;;;;;;36.88;23.20;;;12.00;99.90;;;;;;5033367;28;20052;-67
2022/04/30 05:04:57;;;;;;;40.93;25.30;;;11.90;99.90;;;;;;5016292;28;20029;-65
2022/04/30 05:07:23;;;;;;;40.93;22.93;;;11.80;99.90;;;;;;5033508;28;20116;-66
2022/04/30 05:09:48;;;;;;;40.45;23.45;;;11.70;99.90;;;;;;5016133;28;20021;-66
2022/04/30 05:12:14;;;;;;;42.47;25.53;;;11.60;99.90;;;;;;5033230;28;20112;-67
2022/04/30 05:14:40;;;;;;;44.42;24.80;;;11.50;99.90;;;;;;5033192;28;20025;-66
2022/04/30 05:17:09;;;;;;;46.58;25.95;;;11.50;99.90;;;;;;5033367;28;20041;-66
2022/04/30 05:19:35;;;;;;;43.38;25.85;;;11.40;99.90;;;;;;5015268;28;20033;-66
2022/04/30 05:22:00;;;;;;;41.65;26.13;;;11.40;99.90;;;;;;5033009;28;20021;-66
2022/04/30 05:24:26;;;;;;;44.55;26.38;;;11.40;99.90;;;;;;5032971;28;20033;-66
2022/04/30 05:26:52;;;;;;;47.03;26.98;;;11.40;99.90;;;;;;5033349;28;20455;-66
2022/04/30 05:29:17;;;;;;;39.50;24.43;;;11.40;99.90;;;;;;5033088;28;20457;-67
2022/04/30 05:31:43;;;;;;;42.43;25.23;;;11.60;99.90;;;;;;5015337;28;20275;-67
2022/04/30 05:34:10;;;;;;;43.13;26.05;;;11.70;99.90;;;;;;5015911;28;20026;-68
2022/04/30 05:36:36;;;;;;;42.05;24.75;;;11.60;99.90;;;;;;5032791;28;20037;-67
2022/04/30 05:39:02;;;;;;;;;;;11.60;99.90;;;;;;5033135;28;20033;-67
2022/04/30 05:41:28;;;;;;;40.33;24.75;;;11.50;99.90;;;;;;5033194;28;19905;-66
2022/04/30 05:43:54;;;;;;;44.08;24.83;;;11.50;99.90;;;;;;5032770;28;20029;-66
2022/04/30 05:46:20;;;;;;;39.42;24.42;;;11.50;99.90;;;;;;5032902;28;20394;-66
2022/04/30 05:48:45;;;;;;;40.13;25.60;;;11.50;99.90;;;;;;5032783;28;20033;-66
2022/04/30 05:51:11;;;;;;;39.77;23.27;;;11.50;99.90;;;;;;5015226;28;20025;-67
2022/04/30 05:53:37;;;;;;;40.00;23.93;;;11.50;99.90;;;;;;5015056;28;20032;-66
2022/04/30 05:56:03;;;;;;;32.73;20.73;;;11.70;99.90;;;;;;5032785;28;20304;-66
2022/04/30 05:58:28;;;;;;;37.13;21.30;;;11.80;99.90;;;;;;5015260;28;20064;-65
2022/04/30 06:00:54;;;;;;;35.97;23.10;;;11.90;99.90;;;;;;5032653;28;20083;-65
2022/04/30 06:03:20;;;;;;;40.78;23.25;;;11.90;99.90;;;;;;5033798;28;20021;-66
2022/04/30 06:05:46;;;;;;;32.93;21.53;;;11.90;99.90;;;;;;5032679;28;20026;-66
2022/04/30 06:08:11;;;;;;;35.80;22.10;;;11.90;99.90;;;;;;5060483;23;20681;-64
2022/04/30 06:10:37;;;;;;;33.60;21.35;;;11.90;99.90;;;;;;5054181;28;20055;-64
2022/04/30 06:13:03;;;;;;;35.42;22.73;;;11.80;99.90;;;;;;5073571;28;20035;-64
2022/04/30 06:15:29;;;;;;;36.05;20.60;;;11.80;99.90;;;;;;5076413;28;20043;-64
2022/04/30 06:17:55;;;;;;;35.87;20.40;;;11.80;99.90;;;;;;5076550;28;20104;-64
2022/04/30 06:20:20;;;;;;;33.17;20.87;;;11.80;99.90;;;;;;5076077;28;20325;-64
2022/04/30 06:22:46;;;;;;;30.07;20.13;;;11.80;99.90;;;;;;5076752;28;20263;-64
2022/04/30 06:25:12;;;;;;;32.88;19.60;;;11.70;99.90;;;;;;5076395;28;20347;-64
2022/04/30 06:27:38;;;;;;;33.50;20.63;;;11.80;99.90;;;;;;5075881;28;20116;-64
2022/04/30 06:30:06;;;;;;;38.38;24.60;;;11.80;99.90;;;;;;5057732;28;20421;-64
2022/04/30 06:32:32;;;;;;;27.27;19.17;;;11.80;99.90;;;;;;5075738;28;20025;-64
2022/04/30 06:34:58;;;;;;;31.10;19.38;;;11.90;99.90;;;;;;5057719;28;20503;-63
2022/04/30 06:37:23;;;;;;;30.63;20.03;;;11.90;99.90;;;;;;5075721;28;20426;-63
2022/04/30 06:39:49;;;;;;;28.83;19.30;;;12.10;99.90;;;;;;5075483;28;20654;-67
2022/04/30 06:42:14;;;;;;;33.07;20.20;;;12.00;99.90;;;;;;5076340;28;20024;-64
2022/04/30 06:44:40;;;;;;;32.77;20.77;;;11.80;99.90;;;;;;5075469;28;20472;-63
2022/04/30 06:47:06;;;;;;;29.07;19.77;;;11.80;99.90;;;;;;5075594;28;20074;-64
2022/04/30 06:49:31;;;;;;;35.07;23.00;;;11.90;99.90;;;;;;5078245;28;20826;-64
2022/04/30 06:51:57;;;;;;;36.07;21.93;;;11.90;99.90;;;;;;5059362;28;20020;-63
2022/04/30 06:57:11;;;;;;;31.90;20.33;;;11.80;99.90;;;;;;5075571;28;20078;-66
2022/04/30 06:59:41;;;;;;;32.38;21.17;;;11.70;99.90;;;;;;5075135;28;20031;-64
2022/04/30 07:02:17;;;;;;;35.88;21.33;;;11.60;99.90;;;;;;5074959;28;20032;-64
2022/04/30 07:04:43;;;;;;;27.55;20.77;;;11.50;99.90;;;;;;5075363;28;20051;-65
2022/04/30 07:07:09;;;;;;;31.40;20.48;;;11.50;99.90;;;;;;5075290;28;20540;-65
2022/04/30 07:09:36;;;;;;;;;;;11.60;99.90;;;;;;5077207;28;20020;-64
2022/04/30 07:12:07;;;;;;;28.83;19.67;;;11.80;99.90;;;;;;5076619;28;20328;-64
2022/04/30 07:14:39;;;;;;;27.08;20.50;;;11.90;99.90;;;;;;5075334;28;20028;-64
2022/04/30 07:17:06;;;;;;;28.42;20.13;;;12.00;99.90;;;;;;5057049;28;20029;-64
2022/04/30 07:19:32;;;;;;;31.90;20.55;;;11.90;99.90;;;;;;5075220;28;20412;-64
2022/04/30 07:21:57;;;;;;;30.17;20.85;;;11.90;99.90;;;;;;5075391;28;20028;-66
2022/04/30 07:24:23;;;;;;;35.70;21.80;;;11.90;99.90;;;;;;5074817;28;20554;-65
2022/04/30 07:26:48;;;;;;;34.83;22.57;;;11.90;99.90;;;;;;5075502;28;20258;-65
2022/04/30 07:29:14;;;;;;;31.27;20.47;;;11.90;99.90;;;;;;5075036;28;20024;-64
2022/04/30 07:31:40;;;;;;;32.57;21.20;;;11.90;99.90;;;;;;5074794;28;20070;-63
2022/04/30 07:34:06;;;;;;;31.25;20.95;;;11.80;99.90;;;;;;5076238;28;20155;-60
2022/04/30 07:36:32;;;;;;;27.30;18.40;;;11.80;99.90;;;;;;5079905;28;20515;-64
2022/04/30 07:38:58;;;;;;;32.58;20.95;;;11.70;99.90;;;;;;5075355;28;20111;-65
2022/04/30 07:41:24;;;;;;;36.28;22.58;;;11.80;99.90;;;;;;5075786;28;20039;-65
2022/04/30 07:43:50;;;;;;;32.63;22.10;;;11.70;99.90;;;;;;5057019;28;20111;-64
2022/04/30 07:46:16;;;;;;;30.45;20.48;;;11.60;99.90;;;;;;5074650;28;20366;-65
2022/04/30 07:48:42;;;;;;;35.55;23.90;;;11.50;99.90;;;;;;5074429;28;20035;-65
2022/04/30 07:51:19;;;;;;;33.22;21.85;;;11.60;99.90;;;;;;5074812;28;20104;-65
2022/04/30 07:53:45;;;;;;;28.98;20.88;;;11.60;99.90;;;;;;5074438;28;20385;-65
2022/04/30 07:56:11;;;;;;;30.75;21.85;;;11.60;99.90;;;;;;5074311;28;20039;-66
2022/04/30 07:58:37;;;;;;;;;;;11.60;99.90;;;;;;5074336;28;20485;-64
2022/04/30 08:01:03;;;;;;;33.28;21.85;;;11.90;99.90;;;;;;5056930;28;19904;-64
2022/04/30 08:03:29;;;;;;;31.52;20.75;;;11.90;99.90;;;;;;5073932;28;20379;-65
2022/04/30 08:05:55;;;;;;;32.88;21.88;;;11.80;99.90;;;;;;5074728;28;20104;-64
2022/04/30 08:08:20;;;;;;;31.35;21.02;;;11.80;99.90;;;;;;5073760;28;20028;-66
2022/04/30 08:10:46;;;;;;;30.63;22.10;;;11.90;99.90;;;;;;5073720;28;20527;-65
2022/04/30 08:13:12;;;;;;;35.63;24.27;;;11.90;99.90;;;;;;5056139;28;20028;-64
2022/04/30 08:15:43;;;;;;;28.70;21.23;;;11.80;99.90;;;;;;5074179;28;20560;-66
2022/04/30 08:18:10;;;;;;;29.02;21.13;;;11.80;99.90;;;;;;5073594;28;20028;-65
2022/04/30 08:20:37;;;;;;;27.80;20.35;;;11.80;99.90;;;;;;5073928;28;20024;-65
2022/04/30 08:23:06;;;;;;;28.40;19.88;;;11.80;99.90;;;;;;5073475;28;20032;-64
2022/04/30 08:25:34;;;;;;;27.63;19.98;;;11.80;99.90;;;;;;5073931;28;20420;-64
2022/04/30 08:28:01;;;;;;;31.90;21.88;;;11.80;99.90;;;;;;5055717;28;20081;-64
2022/04/30 08:30:26;;;;;;;27.55;20.40;;;11.80;99.90;;;;;;5073382;28;20469;-63
2022/04/30 08:32:52;;;;;;;28.00;19.80;;;11.90;99.90;;;;;;5073633;28;20024;-64
2022/04/30 08:35:17;;;;;;;26.87;19.83;;;11.90;99.90;;;;;;5073677;28;20021;-62
2022/04/30 08:37:43;;;;;;;26.13;18.90;;;11.90;99.90;;;;;;5073579;28;20025;-64
2022/04/30 08:40:09;;;;;;;30.00;20.37;;;11.90;99.90;;;;;;5073232;28;20037;-64
2022/04/30 08:42:34;;;;;;;27.88;20.17;;;12.00;99.90;;;;;;5073582;28;20143;-65
2022/04/30 08:45:06;;;;;;;24.90;19.23;;;12.00;99.90;;;;;;5073870;28;20047;-65
2022/04/30 08:47:37;;;;;;;25.88;20.13;;;11.90;99.90;;;;;;5073463;28;20131;-65
2022/04/30 08:50:03;;;;;;;27.05;20.20;;;11.80;99.90;;;;;;5073164;28;20048;-65
2022/04/30 08:52:29;;;;;;;25.20;20.02;;;11.80;99.90;;;;;;5073210;28;20020;-65
2022/04/30 08:54:54;;;;;;;27.42;19.92;;;11.80;99.90;;;;;;5073365;28;20063;-65
2022/04/30 08:57:20;;;;;;;29.53;21.03;;;11.80;99.90;;;;;;5071624;28;20028;-65
2022/04/30 08:59:46;;;;;;;27.55;20.30;;;11.80;99.90;;;;;;5071756;28;20025;-65
2022/04/30 09:02:12;;;;;;;24.77;19.50;;;11.90;99.90;;;;;;5054889;28;20487;-65
2022/04/30 09:04:44;;;;;;;28.40;20.55;;;11.80;99.90;;;;;;5054712;28;20025;-65
2022/04/30 09:07:37;;;;;;;26.52;19.65;;;11.90;99.90;;;;;;5055023;28;20469;-65
2022/04/30 09:10:05;;;;;;;53.33;25.65;;;11.80;99.90;;;;;;5069825;28;20142;-67
2022/04/30 09:12:33;;;;;;;33.42;21.65;;;11.80;99.90;;;;;;5072479;28;20035;-67
2022/04/30 09:14:59;;;;;;;30.67;21.27;;;11.80;99.90;;;;;;5075510;28;20025;-67
2022/04/30 09:17:27;;;;;;;31.55;20.23;;;11.80;99.90;;;;;;5056630;28;20028;-67
2022/04/30 09:19:52;;;;;;;32.70;19.92;;;11.70;99.90;;;;;;5072659;28;20398;-67
2022/04/30 09:22:30;;;;;;;33.03;20.57;;;11.80;99.90;;;;;;5054771;28;20021;-66
2022/04/30 09:24:57;;;;;;;28.77;20.20;;;11.90;99.90;;;;;;5054745;28;20062;-67
2022/04/30 09:27:23;;;;;;;32.25;20.08;;;11.80;99.90;;;;;;5072946;28;20020;-66
2022/04/30 09:29:49;;;;;;;36.60;20.20;;;11.90;99.90;;;;;;5072601;28;20029;-67
2022/04/30 09:32:27;;;;;;;28.30;18.88;;;12.00;99.90;;;;;;5054688;28;20032;-66
2022/04/30 09:37:41;;;;;;;34.92;23.08;;;12.00;99.90;;;;;;5073520;28;20035;-66
2022/04/30 09:40:20;;;;;;;29.00;20.70;;;12.00;99.90;;;;;;5072835;28;20035;-67
2022/04/30 09:42:46;;;;;;;26.02;18.23;;;12.10;99.90;;;;;;5072494;28;20032;-67
2022/04/30 09:45:32;;;;;;;29.40;20.35;;;12.10;99.90;;;;;;5072459;28;20056;-67
2022/04/30 09:53:56;;;;;;;27.13;18.65;;;12.20;99.90;;;;;;5074310;28;20031;-67
2022/04/30 09:56:39;;;;;;;27.70;17.58;;;12.50;99.90;;;;;;5076827;28;20078;-64
2022/04/30 09:59:11;;;;;;;24.73;18.02;;;12.60;99.90;;;;;;5076438;28;20025;-66
2022/04/30 10:01:39;;;;;;;24.45;17.58;;;12.60;99.90;;;;;;5058347;28;20111;-67
2022/04/30 10:04:10;;;;;;;24.20;16.85;;;12.70;99.90;;;;;;5058415;28;20029;-66
2022/04/30 10:06:41;;;;;;;23.77;17.60;;;13.00;99.90;;;;;;5058162;28;20028;-65
2022/04/30 10:09:13;;;;;;;23.00;15.98;;;13.10;99.90;;;;;;5076089;28;20436;-67
2022/04/30 10:12:05;;;;;;;24.85;17.00;;;13.10;99.90;;;;;;5058179;28;20025;-67
2022/04/30 10:15:01;;;;;;;27.48;17.75;;;13.20;99.90;;;;;;5053448;28;20374;-67
2022/04/30 10:17:29;;;;;;;25.25;17.60;;;13.00;99.90;;;;;;5076484;28;20024;-67
2022/04/30 10:20:07;;;;;;;25.25;17.23;;;12.90;99.90;;;;;;5076078;28;20029;-66
2022/04/30 10:22:33;;;;;;;25.40;18.08;;;12.70;99.90;;;;;;5058027;28;20082;-66
2022/04/30 10:25:00;;;;;;;27.98;18.17;;;12.60;99.90;;;;;;5075964;28;20025;-66
2022/04/30 10:27:38;;;;;;;26.15;18.20;;;12.70;99.90;;;;;;5075846;28;20466;-66
2022/04/30 10:30:07;;;;;;;26.05;18.40;;;12.80;99.90;;;;;;5076194;28;20012;-66
2022/04/30 10:32:37;;;;;;;24.92;19.40;;;12.70;99.90;;;;;;5075746;28;20024;-66
2022/04/30 10:35:05;;;;;;;24.38;18.65;;;12.60;99.90;;;;;;5076372;28;20021;-66
2022/04/30 10:37:38;;;;;;;26.50;18.90;;;12.60;99.90;;;;;;5075839;28;20024;-67
2022/04/30 10:40:06;;;;;;;25.77;19.80;;;12.80;99.90;;;;;;5079596;28;20036;-66
2022/04/30 10:42:40;;;;;;;28.50;18.45;;;12.70;99.90;;;;;;5079375;28;20103;-66
2022/04/30 10:45:07;;;;;;;30.55;18.73;;;12.80;99.90;;;;;;5075787;28;20028;-66
2022/04/30 10:47:33;;;;;;;29.25;19.65;;;12.70;99.90;;;;;;5057602;28;20370;-66
2022/04/30 10:50:00;;;;;;;24.85;19.23;;;12.60;99.90;;;;;;5075725;28;20028;-67
2022/04/30 10:52:26;;;;;;;28.88;18.63;;;12.70;99.90;;;;;;5074317;28;20020;-66
2022/04/30 10:54:54;;;;;;;26.40;18.80;;;12.60;99.90;;;;;;5057398;28;20054;-67
2022/04/30 10:57:21;;;;;;;25.73;19.50;;;12.60;99.90;;;;;;5075435;28;20028;-66
2022/04/30 11:00:01;;;;;;;27.05;18.08;;;12.70;99.90;;;;;;5074579;28;20495;-66
2022/04/30 11:02:32;;;;;;;23.70;16.65;;;12.60;99.90;;;;;;5075472;28;20036;-66
2022/04/30 11:04:58;;;;;;;22.70;15.98;;;12.60;99.90;;;;;;5075479;28;20457;-67
2022/04/30 11:07:27;;;;;;;21.10;15.70;;;12.60;99.90;;;;;;5075029;28;20033;-66
2022/04/30 11:09:52;;;;;;;21.27;16.02;;;12.60;99.90;;;;;;5075230;28;20485;-66
2022/04/30 11:12:18;;;;;;;20.93;15.27;;;12.50;99.90;;;;;;5073799;28;20031;-66
2022/04/30 11:14:47;;;;;;;20.77;16.15;;;12.40;99.90;;;;;;5073980;28;20123;-66
2022/04/30 11:17:12;;;;;;;19.70;15.80;;;12.40;99.90;;;;;;5075196;28;20035;-67
2022/04/30 11:19:42;;;;;;;20.40;15.10;;;12.30;99.90;;;;;;5075717;28;20116;-67
2022/04/30 11:22:09;;;;;;;20.70;16.15;;;12.20;99.90;;;;;;5076119;28;20028;-67
2022/04/30 11:24:38;;;;;;;21.55;16.02;;;12.20;99.90;;;;;;5076255;28;20048;-66
2022/04/30 11:27:06;;;;;;;21.70;15.27;;;12.20;99.90;;;;;;5076795;28;20016;-66
2022/04/30 11:29:33;;;;;;;19.48;15.07;;;12.30;99.90;;;;;;5077987;28;20315;-66
2022/04/30 11:32:00;;;;;;;20.52;14.90;;;12.30;99.90;;;;;;5077063;28;20016;-66
2022/04/30 11:34:25;;;;;;;21.60;14.80;;;12.20;99.90;;;;;;5075032;28;20366;-67
2022/04/30 11:36:56;;;;;;;19.58;13.45;;;12.30;99.90;;;;;;5075667;28;20035;-67
2022/04/30 11:39:23;;;;;;;20.58;14.90;;;12.50;99.90;;;;;;5074999;28;20361;-65
2022/04/30 11:41:49;;;;;;;;;;;12.40;99.90;;;;;;5075023;28;20107;-65
2022/04/30 11:44:17;;;;;;;21.55;14.90;;;12.40;99.90;;;;;;5074292;28;19912;-65
2022/04/30 11:46:44;;;;;;;21.17;15.02;;;12.50;99.90;;;;;;5074508;28;20026;-66
2022/04/30 11:49:19;;;;;;;21.05;14.75;;;12.60;99.90;;;;;;5074399;28;20021;-66
2022/04/30 11:51:45;;;;;;;16.75;12.88;;;12.60;99.90;;;;;;5074552;28;20041;-66
2022/04/30 11:54:12;;;;;;;;;;;12.50;99.90;;;;;;5074641;28;20435;-65
2022/04/30 11:56:39;;;;;;;19.88;12.70;;;12.60;99.90;;;;;;5074270;28;19911;-66
2022/04/30 11:59:05;;;;;;;17.52;12.07;;;12.80;99.90;;;;;;5056590;28;20028;-67
2022/04/30 12:01:33;;;;;;;18.77;13.05;;;13.00;99.90;;;;;;5055973;28;20024;-67
2022/04/30 12:04:14;;;;;;;19.13;12.05;;;12.90;99.90;;;;;;5074075;28;20028;-67
2022/04/30 12:06:43;;;;;;;17.20;11.93;;;13.10;99.90;;;;;;5056076;28;20062;-67
2022/04/30 12:09:14;;;;;;;17.88;12.50;;;13.30;99.90;;;;;;5074430;28;20132;-66
2022/04/30 12:11:44;;;;;;;17.33;12.30;;;13.30;99.90;;;;;;5073981;28;20023;-65
2022/04/30 12:14:11;;;;;;;17.30;12.50;;;13.40;99.90;;;;;;5074385;28;20074;-66
2022/04/30 12:16:41;;;;;;;18.00;11.60;;;13.30;99.90;;;;;;5074658;28;20073;-66
2022/04/30 12:24:58;;;;;;;31.95;14.27;;;13.60;99.90;;;;;;5074243;28;20039;-64
2022/04/30 12:27:24;;;;;;;16.95;11.10;;;13.80;99.90;;;;;;5074106;28;20111;-65
2022/04/30 12:30:14;;;;;;;17.42;11.63;;;13.90;99.90;;;;;;5056011;28;20052;-64
2022/04/30 12:33:00;;;;;;;14.57;11.68;;;13.70;99.90;;;;;;5074583;28;20104;-65
2022/04/30 12:35:27;;;;;;;17.08;11.35;;;13.70;99.90;;;;;;5073877;28;20503;-66
2022/04/30 12:38:10;;;;;;;18.48;11.93;;;13.70;99.90;;;;;;5073789;28;20058;-64
2022/04/30 12:40:37;;;;;;;16.50;12.27;;;13.40;99.90;;;;;;5073334;28;20024;-65
2022/04/30 12:43:04;;;;;;;15.65;11.48;;;13.50;99.90;;;;;;5073335;28;20024;-65
2022/04/30 12:45:33;;;;;;;15.65;11.40;;;13.30;99.90;;;;;;5055545;28;20074;-65
2022/04/30 12:48:00;;;;;;;19.17;13.38;;;13.20;99.90;;;;;;5055388;28;20020;-65
2022/04/30 12:50:27;;;;;;;22.42;13.20;;;13.20;99.90;;;;;;5073463;28;20437;-64
2022/04/30 12:52:53;;;;;;;;;;;13.20;99.90;;;;;;5073754;28;20104;-65
2022/04/30 12:55:19;;;;;;;17.63;12.45;;;13.20;99.90;;;;;;5073452;28;19936;-64
2022/04/30 12:57:46;;;;;;;18.60;13.05;;;13.10;99.90;;;;;;5073430;28;20021;-64
2022/04/30 13:00:13;;;;;;;18.23;13.43;;;13.00;99.90;;;;;;5055338;28;20028;-65
2022/04/30 13:02:39;;;;;;;17.27;13.10;;;13.00;99.90;;;;;;5073667;28;20449;-66
2022/04/30 13:05:12;;;;;;;15.82;12.18;;;13.00;99.90;;;;;;5073326;28;20024;-66
2022/04/30 13:07:40;;;;;;;16.55;12.15;;;12.90;99.90;;;;;;5073888;28;20345;-66
2022/04/30 13:15:36;;;;;;;15.85;11.52;;;12.80;99.90;;;;;;5073438;28;20063;-66